sensor_id;sensor_type;location;lat;lon;timestamp;P1;durP1;ratioP1;P2;durP2;ratioP2
11431;SDS011;5772;50.940;6.782;2024-03-02T00:02:06;23.83;;;22.90;;
11431;SDS011;5772;50.940;6.782;2024-03-02T00:04:31;22.97;;;22.07;;
11431;SDS011;5772;50.940;6.782;2024-03-02T00:06:57;24.80;;;23.80;;
11431;SDS011;5772;50.940;6.782;2024-03-02T00:09:22;24.83;;;23.73;;
11431;SDS011;5772;50.940;6.782;2024-03-02T00:11:48;23.43;;;22.43;;
11431;SDS011;5772;50.940;6.782;2024-03-02T00:14:13;25.20;;;24.10;;
11431;SDS011;5772;50.940;6.782;2024-03-02T00:16:38;24.33;;;23.33;;
11431;SDS011;5772;50.940;6.782;2024-03-02T00:19:06;24.77;;;23.53;;
11431;SDS011;5772;50.940;6.782;2024-03-02T00:21:32;23.90;;;22.90;;
11431;SDS011;5772;50.940;6.782;2024-03-02T00:23:58;24.27;;;23.20;;
11431;SDS011;5772;50.940;6.782;2024-03-02T00:26:23;24.80;;;23.70;;
11431;SDS011;5772;50.940;6.782;2024-03-02T00:28:49;23.83;;;22.83;;
11431;SDS011;5772;50.940;6.782;2024-03-02T00:31:14;24.87;;;23.80;;
11431;SDS011;5772;50.940;6.782;2024-03-02T00:33:41;25.37;;;24.27;;
11431;SDS011;5772;50.940;6.782;2024-03-02T00:36:09;23.67;;;22.67;;
11431;SDS011;5772;50.940;6.782;2024-03-02T00:38:35;25.60;;;24.50;;
11431;SDS011;5772;50.940;6.782;2024-03-02T00:41:07;25.47;;;24.33;;
11431;SDS011;5772;50.940;6.782;2024-03-02T00:43:45;25.40;;;24.40;;
11431;SDS011;5772;50.940;6.782;2024-03-02T00:46:12;24.50;;;23.50;;
11431;SDS011;5772;50.940;6.782;2024-03-02T00:48:38;25.10;;;24.10;;
11431;SDS011;5772;50.940;6.782;2024-03-02T00:51:04;27.03;;;25.83;;
11431;SDS011;5772;50.940;6.782;2024-03-02T00:53:31;23.30;;;22.30;;
11431;SDS011;5772;50.940;6.782;2024-03-02T00:55:57;23.73;;;22.73;;
11431;SDS011;5772;50.940;6.782;2024-03-02T00:58:22;26.77;;;25.60;;
11431;SDS011;5772;50.940;6.782;2024-03-02T01:00:48;24.03;;;23.03;;
11431;SDS011;5772;50.940;6.782;2024-03-02T01:03:13;24.77;;;23.67;;
11431;SDS011;5772;50.940;6.782;2024-03-02T01:05:40;24.40;;;23.40;;
11431;SDS011;5772;50.940;6.782;2024-03-02T01:08:06;24.83;;;23.83;;
11431;SDS011;5772;50.940;6.782;2024-03-02T01:10:33;26.67;;;25.47;;
11431;SDS011;5772;50.940;6.782;2024-03-02T01:12:58;25.30;;;24.20;;
11431;SDS011;5772;50.940;6.782;2024-03-02T01:15:24;27.30;;;26.10;;
11431;SDS011;5772;50.940;6.782;2024-03-02T01:17:49;24.83;;;23.83;;
11431;SDS011;5772;50.940;6.782;2024-03-02T01:20:14;25.17;;;23.97;;
11431;SDS011;5772;50.940;6.782;2024-03-02T01:22:40;27.43;;;26.33;;
11431;SDS011;5772;50.940;6.782;2024-03-02T01:25:05;24.03;;;22.97;;
11431;SDS011;5772;50.940;6.782;2024-03-02T01:27:33;26.13;;;25.03;;
11431;SDS011;5772;50.940;6.782;2024-03-02T01:29:58;25.70;;;24.60;;
11431;SDS011;5772;50.940;6.782;2024-03-02T01:32:23;26.20;;;25.00;;
11431;SDS011;5772;50.940;6.782;2024-03-02T01:34:49;23.87;;;22.73;;
11431;SDS011;5772;50.940;6.782;2024-03-02T01:37:14;25.07;;;24.07;;
11431;SDS011;5772;50.940;6.782;2024-03-02T01:39:40;25.53;;;24.13;;
11431;SDS011;5772;50.940;6.782;2024-03-02T01:42:05;24.47;;;23.37;;
11431;SDS011;5772;50.940;6.782;2024-03-02T01:44:32;25.00;;;23.90;;
11431;SDS011;5772;50.940;6.782;2024-03-02T01:46:57;25.77;;;24.67;;
11431;SDS011;5772;50.940;6.782;2024-03-02T01:49:23;26.87;;;25.77;;
11431;SDS011;5772;50.940;6.782;2024-03-02T01:51:48;26.13;;;24.93;;
11431;SDS011;5772;50.940;6.782;2024-03-02T01:54:13;25.63;;;24.47;;
11431;SDS011;5772;50.940;6.782;2024-03-02T01:56:39;27.50;;;26.30;;
11431;SDS011;5772;50.940;6.782;2024-03-02T01:59:05;26.00;;;24.90;;
11431;SDS011;5772;50.940;6.782;2024-03-02T02:01:31;25.00;;;24.00;;
11431;SDS011;5772;50.940;6.782;2024-03-02T02:03:57;23.27;;;22.33;;
11431;SDS011;5772;50.940;6.782;2024-03-02T02:06:22;25.23;;;24.17;;
11431;SDS011;5772;50.940;6.782;2024-03-02T02:08:48;23.43;;;22.10;;
11431;SDS011;5772;50.940;6.782;2024-03-02T02:11:14;23.87;;;22.87;;
11431;SDS011;5772;50.940;6.782;2024-03-02T02:13:40;24.53;;;23.53;;
11431;SDS011;5772;50.940;6.782;2024-03-02T02:16:05;24.33;;;23.23;;
11431;SDS011;5772;50.940;6.782;2024-03-02T02:18:33;24.77;;;23.67;;
11431;SDS011;5772;50.940;6.782;2024-03-02T02:20:58;26.17;;;25.00;;
11431;SDS011;5772;50.940;6.782;2024-03-02T02:23:25;27.50;;;26.30;;
11431;SDS011;5772;50.940;6.782;2024-03-02T02:25:50;24.23;;;23.17;;
11431;SDS011;5772;50.940;6.782;2024-03-02T02:28:16;26.60;;;25.50;;
11431;SDS011;5772;50.940;6.782;2024-03-02T02:30:41;26.90;;;25.53;;
11431;SDS011;5772;50.940;6.782;2024-03-02T02:33:07;25.10;;;24.03;;
11431;SDS011;5772;50.940;6.782;2024-03-02T02:35:32;27.37;;;26.20;;
11431;SDS011;5772;50.940;6.782;2024-03-02T02:37:57;25.63;;;24.53;;
11431;SDS011;5772;50.940;6.782;2024-03-02T02:40:24;25.13;;;23.83;;
11431;SDS011;5772;50.940;6.782;2024-03-02T02:42:50;25.97;;;24.87;;
11431;SDS011;5772;50.940;6.782;2024-03-02T02:45:16;24.13;;;22.77;;
11431;SDS011;5772;50.940;6.782;2024-03-02T02:47:41;26.30;;;25.20;;
11431;SDS011;5772;50.940;6.782;2024-03-02T02:50:07;22.80;;;21.87;;
11431;SDS011;5772;50.940;6.782;2024-03-02T02:52:33;24.27;;;23.17;;
11431;SDS011;5772;50.940;6.782;2024-03-02T02:54:58;26.20;;;25.13;;
11431;SDS011;5772;50.940;6.782;2024-03-02T02:57:25;23.53;;;22.53;;
11431;SDS011;5772;50.940;6.782;2024-03-02T02:59:50;25.13;;;24.03;;
11431;SDS011;5772;50.940;6.782;2024-03-02T03:02:16;23.87;;;22.80;;
11431;SDS011;5772;50.940;6.782;2024-03-02T03:04:41;26.43;;;25.33;;
11431;SDS011;5772;50.940;6.782;2024-03-02T03:07:07;25.70;;;24.60;;
11431;SDS011;5772;50.940;6.782;2024-03-02T03:09:32;24.20;;;23.20;;
11431;SDS011;5772;50.940;6.782;2024-03-02T03:11:57;23.90;;;22.80;;
11431;SDS011;5772;50.940;6.782;2024-03-02T03:14:24;25.73;;;24.63;;
11431;SDS011;5772;50.940;6.782;2024-03-02T03:16:50;23.63;;;22.53;;
11431;SDS011;5772;50.940;6.782;2024-03-02T03:19:15;23.27;;;22.27;;
11431;SDS011;5772;50.940;6.782;2024-03-02T03:21:40;24.87;;;23.87;;
11431;SDS011;5772;50.940;6.782;2024-03-02T03:24:06;23.60;;;22.67;;
11431;SDS011;5772;50.940;6.782;2024-03-02T03:26:31;23.87;;;22.87;;
11431;SDS011;5772;50.940;6.782;2024-03-02T03:28:57;24.87;;;23.80;;
11431;SDS011;5772;50.940;6.782;2024-03-02T03:31:23;24.47;;;23.47;;
11431;SDS011;5772;50.940;6.782;2024-03-02T03:33:49;23.77;;;22.77;;
11431;SDS011;5772;50.940;6.782;2024-03-02T03:36:14;22.53;;;21.47;;
11431;SDS011;5772;50.940;6.782;2024-03-02T03:38:39;24.37;;;23.17;;
11431;SDS011;5772;50.940;6.782;2024-03-02T03:41:05;23.17;;;22.27;;
11431;SDS011;5772;50.940;6.782;2024-03-02T03:43:30;21.63;;;20.77;;
11431;SDS011;5772;50.940;6.782;2024-03-02T03:45:56;22.47;;;21.50;;
11431;SDS011;5772;50.940;6.782;2024-03-02T03:48:22;22.80;;;21.87;;
11431;SDS011;5772;50.940;6.782;2024-03-02T03:50:48;23.17;;;22.27;;
11431;SDS011;5772;50.940;6.782;2024-03-02T03:53:13;24.17;;;23.07;;
11431;SDS011;5772;50.940;6.782;2024-03-02T03:55:39;23.67;;;22.53;;
11431;SDS011;5772;50.940;6.782;2024-03-02T03:58:04;24.63;;;23.63;;
11431;SDS011;5772;50.940;6.782;2024-03-02T04:00:29;24.70;;;23.47;;
11431;SDS011;5772;50.940;6.782;2024-03-02T04:02:56;24.47;;;23.47;;
11431;SDS011;5772;50.940;6.782;2024-03-02T04:05:23;24.77;;;23.67;;
11431;SDS011;5772;50.940;6.782;2024-03-02T04:07:48;24.70;;;23.60;;
11431;SDS011;5772;50.940;6.782;2024-03-02T04:10:13;26.03;;;24.93;;
11431;SDS011;5772;50.940;6.782;2024-03-02T04:12:39;25.43;;;24.37;;
11431;SDS011;5772;50.940;6.782;2024-03-02T04:15:05;26.40;;;25.30;;
11431;SDS011;5772;50.940;6.782;2024-03-02T04:17:31;24.23;;;23.23;;
11431;SDS011;5772;50.940;6.782;2024-03-02T04:19:57;26.60;;;25.20;;
11431;SDS011;5772;50.940;6.782;2024-03-02T04:22:23;25.10;;;24.03;;
11431;SDS011;5772;50.940;6.782;2024-03-02T04:24:49;24.23;;;23.23;;
11431;SDS011;5772;50.940;6.782;2024-03-02T04:27:14;25.67;;;24.57;;
11431;SDS011;5772;50.940;6.782;2024-03-02T04:29:40;24.30;;;23.30;;
11431;SDS011;5772;50.940;6.782;2024-03-02T04:32:05;24.67;;;23.67;;
11431;SDS011;5772;50.940;6.782;2024-03-02T04:34:31;25.07;;;23.97;;
11431;SDS011;5772;50.940;6.782;2024-03-02T04:36:56;25.83;;;24.83;;
11431;SDS011;5772;50.940;6.782;2024-03-02T04:39:23;25.67;;;24.47;;
11431;SDS011;5772;50.940;6.782;2024-03-02T04:41:48;25.87;;;24.83;;
11431;SDS011;5772;50.940;6.782;2024-03-02T04:44:14;26.27;;;25.00;;
11431;SDS011;5772;50.940;6.782;2024-03-02T04:46:39;25.00;;;24.00;;
11431;SDS011;5772;50.940;6.782;2024-03-02T04:49:05;24.07;;;22.90;;
11431;SDS011;5772;50.940;6.782;2024-03-02T04:51:30;25.93;;;24.53;;
11431;SDS011;5772;50.940;6.782;2024-03-02T04:53:55;25.90;;;24.67;;
11431;SDS011;5772;50.940;6.782;2024-03-02T04:56:22;25.00;;;23.97;;
11431;SDS011;5772;50.940;6.782;2024-03-02T04:58:47;25.93;;;24.77;;
11431;SDS011;5772;50.940;6.782;2024-03-02T05:01:13;24.13;;;23.10;;
11431;SDS011;5772;50.940;6.782;2024-03-02T05:03:38;26.23;;;24.80;;
11431;SDS011;5772;50.940;6.782;2024-03-02T05:06:04;26.17;;;25.07;;
11431;SDS011;5772;50.940;6.782;2024-03-02T05:08:29;25.10;;;23.90;;
11431;SDS011;5772;50.940;6.782;2024-03-02T05:10:54;24.80;;;23.80;;
11431;SDS011;5772;50.940;6.782;2024-03-02T05:13:21;26.20;;;25.10;;
11431;SDS011;5772;50.940;6.782;2024-03-02T05:15:47;25.50;;;24.33;;
11431;SDS011;5772;50.940;6.782;2024-03-02T05:18:12;27.70;;;26.53;;
11431;SDS011;5772;50.940;6.782;2024-03-02T05:20:37;25.63;;;24.33;;
11431;SDS011;5772;50.940;6.782;2024-03-02T05:23:03;26.17;;;25.07;;
11431;SDS011;5772;50.940;6.782;2024-03-02T05:25:28;25.67;;;24.47;;
11431;SDS011;5772;50.940;6.782;2024-03-02T05:27:54;25.87;;;24.77;;
11431;SDS011;5772;50.940;6.782;2024-03-02T05:30:20;27.10;;;26.00;;
11431;SDS011;5772;50.940;6.782;2024-03-02T05:32:46;25.47;;;24.47;;
11431;SDS011;5772;50.940;6.782;2024-03-02T05:35:11;26.97;;;25.43;;
11431;SDS011;5772;50.940;6.782;2024-03-02T05:37:37;25.90;;;24.80;;
11431;SDS011;5772;50.940;6.782;2024-03-02T05:40:02;26.77;;;25.67;;
11431;SDS011;5772;50.940;6.782;2024-03-02T05:42:28;26.13;;;24.83;;
11431;SDS011;5772;50.940;6.782;2024-03-02T05:44:54;24.80;;;23.70;;
11431;SDS011;5772;50.940;6.782;2024-03-02T05:47:21;26.50;;;25.10;;
11431;SDS011;5772;50.940;6.782;2024-03-02T05:49:46;27.83;;;26.63;;
11431;SDS011;5772;50.940;6.782;2024-03-02T05:52:11;26.70;;;25.60;;
11431;SDS011;5772;50.940;6.782;2024-03-02T05:54:37;26.30;;;25.17;;
11431;SDS011;5772;50.940;6.782;2024-03-02T05:57:02;27.07;;;25.77;;
11431;SDS011;5772;50.940;6.782;2024-03-02T05:59:28;27.47;;;26.33;;
11431;SDS011;5772;50.940;6.782;2024-03-02T06:01:53;27.00;;;25.80;;
11431;SDS011;5772;50.940;6.782;2024-03-02T06:04:20;26.03;;;24.63;;
11431;SDS011;5772;50.940;6.782;2024-03-02T06:06:45;26.33;;;25.13;;
11431;SDS011;5772;50.940;6.782;2024-03-02T06:09:11;24.30;;;23.23;;
11431;SDS011;5772;50.940;6.782;2024-03-02T06:11:36;27.77;;;26.57;;
11431;SDS011;5772;50.940;6.782;2024-03-02T06:14:02;25.30;;;23.97;;
11431;SDS011;5772;50.940;6.782;2024-03-02T06:16:27;25.00;;;23.90;;
11431;SDS011;5772;50.940;6.782;2024-03-02T06:18:53;24.87;;;23.83;;
11431;SDS011;5772;50.940;6.782;2024-03-02T06:21:19;24.17;;;23.17;;
11431;SDS011;5772;50.940;6.782;2024-03-02T06:23:45;23.90;;;22.90;;
11431;SDS011;5772;50.940;6.782;2024-03-02T06:26:11;26.30;;;25.17;;
11431;SDS011;5772;50.940;6.782;2024-03-02T06:28:36;26.17;;;24.97;;
11431;SDS011;5772;50.940;6.782;2024-03-02T06:31:01;24.50;;;23.50;;
11431;SDS011;5772;50.940;6.782;2024-03-02T06:33:27;25.60;;;24.50;;
11431;SDS011;5772;50.940;6.782;2024-03-02T06:35:52;25.07;;;24.07;;
11431;SDS011;5772;50.940;6.782;2024-03-02T06:38:19;25.67;;;24.57;;
11431;SDS011;5772;50.940;6.782;2024-03-02T06:40:45;25.90;;;24.90;;
11431;SDS011;5772;50.940;6.782;2024-03-02T06:43:10;25.40;;;24.33;;
11431;SDS011;5772;50.940;6.782;2024-03-02T06:45:35;24.40;;;23.27;;
11431;SDS011;5772;50.940;6.782;2024-03-02T06:48:01;26.63;;;25.30;;
11431;SDS011;5772;50.940;6.782;2024-03-02T06:50:26;27.83;;;26.53;;
11431;SDS011;5772;50.940;6.782;2024-03-02T06:52:52;25.27;;;24.17;;
11431;SDS011;5772;50.940;6.782;2024-03-02T06:55:18;25.73;;;24.73;;
11431;SDS011;5772;50.940;6.782;2024-03-02T06:57:44;28.23;;;26.70;;
11431;SDS011;5772;50.940;6.782;2024-03-02T07:00:09;26.50;;;25.40;;
11431;SDS011;5772;50.940;6.782;2024-03-02T07:02:36;26.70;;;25.60;;
11431;SDS011;5772;50.940;6.782;2024-03-02T07:05:01;26.23;;;25.13;;
11431;SDS011;5772;50.940;6.782;2024-03-02T07:07:27;27.03;;;25.93;;
11431;SDS011;5772;50.940;6.782;2024-03-02T07:09:52;26.80;;;25.70;;
11431;SDS011;5772;50.940;6.782;2024-03-02T07:12:19;26.73;;;25.63;;
11431;SDS011;5772;50.940;6.782;2024-03-02T07:14:44;24.57;;;23.50;;
11431;SDS011;5772;50.940;6.782;2024-03-02T07:17:10;20.67;;;19.77;;
11431;SDS011;5772;50.940;6.782;2024-03-02T07:19:35;22.03;;;21.13;;
11431;SDS011;5772;50.940;6.782;2024-03-02T07:22:01;22.83;;;21.83;;
11431;SDS011;5772;50.940;6.782;2024-03-02T07:24:26;22.83;;;21.90;;
11431;SDS011;5772;50.940;6.782;2024-03-02T07:26:51;20.87;;;19.90;;
11431;SDS011;5772;50.940;6.782;2024-03-02T07:29:18;19.77;;;18.83;;
11431;SDS011;5772;50.940;6.782;2024-03-02T07:31:44;19.80;;;18.70;;
11431;SDS011;5772;50.940;6.782;2024-03-02T07:34:09;20.33;;;19.20;;
11431;SDS011;5772;50.940;6.782;2024-03-02T07:36:35;19.23;;;18.33;;
11431;SDS011;5772;50.940;6.782;2024-03-02T07:39:00;19.87;;;19.07;;
11431;SDS011;5772;50.940;6.782;2024-03-02T07:41:25;20.17;;;19.27;;
11431;SDS011;5772;50.940;6.782;2024-03-02T07:43:51;22.27;;;21.37;;
11431;SDS011;5772;50.940;6.782;2024-03-02T07:46:18;20.43;;;19.50;;
11431;SDS011;5772;50.940;6.782;2024-03-02T07:48:43;19.67;;;18.80;;
11431;SDS011;5772;50.940;6.782;2024-03-02T07:51:08;20.07;;;19.17;;
11431;SDS011;5772;50.940;6.782;2024-03-02T07:53:34;20.53;;;19.63;;
11431;SDS011;5772;50.940;6.782;2024-03-02T07:55:59;20.60;;;19.70;;
11431;SDS011;5772;50.940;6.782;2024-03-02T07:58:24;22.47;;;21.57;;
11431;SDS011;5772;50.940;6.782;2024-03-02T08:00:50;18.23;;;17.43;;
11431;SDS011;5772;50.940;6.782;2024-03-02T08:03:17;19.03;;;18.23;;
11431;SDS011;5772;50.940;6.782;2024-03-02T08:05:42;19.03;;;18.23;;
11431;SDS011;5772;50.940;6.782;2024-03-02T08:08:07;18.10;;;17.40;;
11431;SDS011;5772;50.940;6.782;2024-03-02T08:10:33;16.90;;;16.20;;
11431;SDS011;5772;50.940;6.782;2024-03-02T08:12:58;18.90;;;18.10;;
11431;SDS011;5772;50.940;6.782;2024-03-02T08:15:24;19.37;;;18.57;;
11431;SDS011;5772;50.940;6.782;2024-03-02T08:17:49;18.20;;;17.43;;
11431;SDS011;5772;50.940;6.782;2024-03-02T08:20:16;18.63;;;17.63;;
11431;SDS011;5772;50.940;6.782;2024-03-02T08:22:41;18.43;;;17.33;;
11431;SDS011;5772;50.940;6.782;2024-03-02T08:25:07;18.13;;;17.40;;
11431;SDS011;5772;50.940;6.782;2024-03-02T08:27:33;18.67;;;17.87;;
11431;SDS011;5772;50.940;6.782;2024-03-02T08:29:58;20.70;;;19.90;;
11431;SDS011;5772;50.940;6.782;2024-03-02T08:32:24;18.63;;;17.83;;
11431;SDS011;5772;50.940;6.782;2024-03-02T08:34:49;19.43;;;18.53;;
11431;SDS011;5772;50.940;6.782;2024-03-02T08:37:16;20.13;;;18.77;;
11431;SDS011;5772;50.940;6.782;2024-03-02T08:39:41;20.73;;;19.83;;
11431;SDS011;5772;50.940;6.782;2024-03-02T08:42:07;20.33;;;19.53;;
11431;SDS011;5772;50.940;6.782;2024-03-02T08:44:32;19.23;;;18.43;;
11431;SDS011;5772;50.940;6.782;2024-03-02T08:46:58;20.10;;;19.30;;
11431;SDS011;5772;50.940;6.782;2024-03-02T08:49:23;20.63;;;19.73;;
11431;SDS011;5772;50.940;6.782;2024-03-02T08:51:49;21.03;;;20.13;;
11431;SDS011;5772;50.940;6.782;2024-03-02T08:54:15;18.30;;;17.43;;
11431;SDS011;5772;50.940;6.782;2024-03-02T08:56:41;19.43;;;18.63;;
11431;SDS011;5772;50.940;6.782;2024-03-02T08:59:06;20.33;;;19.00;;
11431;SDS011;5772;50.940;6.782;2024-03-02T09:01:32;20.27;;;19.27;;
11431;SDS011;5772;50.940;6.782;2024-03-02T09:03:57;19.67;;;18.90;;
11431;SDS011;5772;50.940;6.782;2024-03-02T09:06:23;18.20;;;17.07;;
11431;SDS011;5772;50.940;6.782;2024-03-02T09:08:49;17.63;;;16.93;;
11431;SDS011;5772;50.940;6.782;2024-03-02T09:11:16;16.50;;;15.80;;
11431;SDS011;5772;50.940;6.782;2024-03-02T09:13:41;18.37;;;17.67;;
11431;SDS011;5772;50.940;6.782;2024-03-02T09:16:06;17.70;;;17.00;;
11431;SDS011;5772;50.940;6.782;2024-03-02T09:18:32;17.70;;;16.80;;
11431;SDS011;5772;50.940;6.782;2024-03-02T09:20:57;17.60;;;16.60;;
11431;SDS011;5772;50.940;6.782;2024-03-02T09:23:23;17.07;;;16.37;;
11431;SDS011;5772;50.940;6.782;2024-03-02T09:42:34;17.23;;;16.40;;
11431;SDS011;5772;50.940;6.782;2024-03-02T09:44:59;16.37;;;15.67;;
11431;SDS011;5772;50.940;6.782;2024-03-02T09:47:25;16.87;;;15.90;;
11431;SDS011;5772;50.940;6.782;2024-03-02T09:49:50;18.80;;;17.90;;
11431;SDS011;5772;50.940;6.782;2024-03-02T09:52:15;17.60;;;16.70;;
11431;SDS011;5772;50.940;6.782;2024-03-02T09:54:41;17.20;;;16.50;;
11431;SDS011;5772;50.940;6.782;2024-03-02T09:57:06;17.47;;;16.47;;
11431;SDS011;5772;50.940;6.782;2024-03-02T09:59:33;16.93;;;16.03;;
11431;SDS011;5772;50.940;6.782;2024-03-02T10:01:58;17.47;;;16.57;;
11431;SDS011;5772;50.940;6.782;2024-03-02T10:04:23;20.23;;;18.80;;
11431;SDS011;5772;50.940;6.782;2024-03-02T10:06:50;20.00;;;19.10;;
11431;SDS011;5772;50.940;6.782;2024-03-02T10:09:18;18.35;;;17.50;;
11431;SDS011;5772;50.940;6.782;2024-03-02T10:11:51;18.40;;;17.52;;
11431;SDS011;5772;50.940;6.782;2024-03-02T10:14:16;16.85;;;16.15;;
11431;SDS011;5772;50.940;6.782;2024-03-02T10:16:43;16.23;;;15.63;;
11431;SDS011;5772;50.940;6.782;2024-03-02T10:19:15;16.25;;;15.65;;
11431;SDS011;5772;50.940;6.782;2024-03-02T10:21:40;18.65;;;17.88;;
11431;SDS011;5772;50.940;6.782;2024-03-02T10:24:06;19.02;;;17.75;;
11431;SDS011;5772;50.940;6.782;2024-03-02T10:26:31;17.90;;;17.17;;
11431;SDS011;5772;50.940;6.782;2024-03-02T10:28:57;16.67;;;16.02;;
11431;SDS011;5772;50.940;6.782;2024-03-02T10:31:22;17.52;;;16.40;;
11431;SDS011;5772;50.940;6.782;2024-03-02T10:33:48;17.55;;;16.75;;
11431;SDS011;5772;50.940;6.782;2024-03-02T10:36:14;16.05;;;15.15;;
11431;SDS011;5772;50.940;6.782;2024-03-02T10:38:40;17.33;;;16.63;;
11431;SDS011;5772;50.940;6.782;2024-03-02T10:41:05;16.47;;;15.87;;
11431;SDS011;5772;50.940;6.782;2024-03-02T10:43:32;18.20;;;17.30;;
11431;SDS011;5772;50.940;6.782;2024-03-02T10:45:57;19.73;;;18.87;;
11431;SDS011;5772;50.940;6.782;2024-03-02T10:48:23;18.07;;;17.33;;
11431;SDS011;5772;50.940;6.782;2024-03-02T10:50:50;19.30;;;18.38;;
11431;SDS011;5772;50.940;6.782;2024-03-02T10:53:16;16.98;;;16.35;;
11431;SDS011;5772;50.940;6.782;2024-03-02T10:55:41;17.52;;;16.83;;
11431;SDS011;5772;50.940;6.782;2024-03-02T10:58:06;17.27;;;16.58;;
11431;SDS011;5772;50.940;6.782;2024-03-02T11:00:33;16.90;;;16.20;;
11431;SDS011;5772;50.940;6.782;2024-03-02T11:03:01;18.30;;;17.50;;
11431;SDS011;5772;50.940;6.782;2024-03-02T11:05:29;16.40;;;15.70;;
11431;SDS011;5772;50.940;6.782;2024-03-02T11:08:00;15.90;;;15.20;;
11431;SDS011;5772;50.940;6.782;2024-03-02T11:10:26;17.50;;;16.70;;
11431;SDS011;5772;50.940;6.782;2024-03-02T11:12:53;16.58;;;15.88;;
11431;SDS011;5772;50.940;6.782;2024-03-02T11:15:19;17.58;;;16.88;;
11431;SDS011;5772;50.940;6.782;2024-03-02T11:17:45;16.35;;;15.65;;
11431;SDS011;5772;50.940;6.782;2024-03-02T11:20:11;15.80;;;15.10;;
11431;SDS011;5772;50.940;6.782;2024-03-02T11:22:37;17.42;;;16.73;;
11431;SDS011;5772;50.940;6.782;2024-03-02T11:25:04;16.55;;;15.95;;
11431;SDS011;5772;50.940;6.782;2024-03-02T11:30:16;18.35;;;17.63;;
11431;SDS011;5772;50.940;6.782;2024-03-02T11:33:02;17.73;;;17.02;;
11431;SDS011;5772;50.940;6.782;2024-03-02T11:35:28;16.83;;;16.13;;
11431;SDS011;5772;50.940;6.782;2024-03-02T11:37:54;17.33;;;16.63;;
11431;SDS011;5772;50.940;6.782;2024-03-02T11:40:22;18.27;;;17.48;;
11431;SDS011;5772;50.940;6.782;2024-03-02T11:42:48;16.75;;;16.05;;
11431;SDS011;5772;50.940;6.782;2024-03-02T11:45:15;17.30;;;16.60;;
11431;SDS011;5772;50.940;6.782;2024-03-02T11:47:41;17.02;;;16.33;;
11431;SDS011;5772;50.940;6.782;2024-03-02T11:50:11;15.25;;;14.65;;
11431;SDS011;5772;50.940;6.782;2024-03-02T11:52:36;16.55;;;15.85;;
11431;SDS011;5772;50.940;6.782;2024-03-02T11:55:03;18.07;;;17.33;;
11431;SDS011;5772;50.940;6.782;2024-03-02T11:57:31;20.47;;;19.67;;
11431;SDS011;5772;50.940;6.782;2024-03-02T11:59:56;19.87;;;19.03;;
11431;SDS011;5772;50.940;6.782;2024-03-02T12:02:21;18.23;;;17.47;;
11431;SDS011;5772;50.940;6.782;2024-03-02T12:04:47;16.60;;;16.00;;
11431;SDS011;5772;50.940;6.782;2024-03-02T12:07:13;17.07;;;16.33;;
11431;SDS011;5772;50.940;6.782;2024-03-02T12:09:43;17.10;;;16.40;;
11431;SDS011;5772;50.940;6.782;2024-03-02T12:12:09;16.27;;;15.67;;
11431;SDS011;5772;50.940;6.782;2024-03-02T12:14:37;17.60;;;16.87;;
11431;SDS011;5772;50.940;6.782;2024-03-02T12:17:03;17.90;;;17.20;;
11431;SDS011;5772;50.940;6.782;2024-03-02T12:19:29;18.77;;;17.90;;
11431;SDS011;5772;50.940;6.782;2024-03-02T12:21:55;18.43;;;17.53;;
11431;SDS011;5772;50.940;6.782;2024-03-02T12:24:20;18.97;;;18.07;;
11431;SDS011;5772;50.940;6.782;2024-03-02T12:26:46;17.20;;;16.50;;
11431;SDS011;5772;50.940;6.782;2024-03-02T12:29:11;18.80;;;18.00;;
11431;SDS011;5772;50.940;6.782;2024-03-02T12:31:38;18.30;;;17.60;;
11431;SDS011;5772;50.940;6.782;2024-03-02T12:34:04;20.13;;;19.33;;
11431;SDS011;5772;50.940;6.782;2024-03-02T12:36:29;20.20;;;19.40;;
11431;SDS011;5772;50.940;6.782;2024-03-02T12:38:55;19.53;;;18.73;;
11431;SDS011;5772;50.940;6.782;2024-03-02T12:41:20;17.93;;;17.17;;
11431;SDS011;5772;50.940;6.782;2024-03-02T12:43:46;18.07;;;17.10;;
11431;SDS011;5772;50.940;6.782;2024-03-02T12:46:11;18.07;;;17.27;;
11431;SDS011;5772;50.940;6.782;2024-03-02T12:48:38;17.03;;;16.33;;
11431;SDS011;5772;50.940;6.782;2024-03-02T12:51:04;18.37;;;17.57;;
11431;SDS011;5772;50.940;6.782;2024-03-02T12:53:29;17.10;;;16.40;;
11431;SDS011;5772;50.940;6.782;2024-03-02T12:55:55;18.10;;;17.30;;
11431;SDS011;5772;50.940;6.782;2024-03-02T12:58:21;16.90;;;16.20;;
11431;SDS011;5772;50.940;6.782;2024-03-02T13:00:47;18.77;;;17.97;;
11431;SDS011;5772;50.940;6.782;2024-03-02T13:03:13;18.50;;;17.80;;
11431;SDS011;5772;50.940;6.782;2024-03-02T13:05:40;18.43;;;17.47;;
11431;SDS011;5772;50.940;6.782;2024-03-02T13:08:05;18.50;;;17.60;;
11431;SDS011;5772;50.940;6.782;2024-03-02T13:10:31;19.53;;;18.73;;
11431;SDS011;5772;50.940;6.782;2024-03-02T13:12:57;17.80;;;17.10;;
11431;SDS011;5772;50.940;6.782;2024-03-02T13:15:22;17.67;;;16.87;;
11431;SDS011;5772;50.940;6.782;2024-03-02T13:17:48;17.50;;;16.70;;
11431;SDS011;5772;50.940;6.782;2024-03-02T13:20:13;18.60;;;17.77;;
11431;SDS011;5772;50.940;6.782;2024-03-02T13:22:41;18.60;;;17.60;;
11431;SDS011;5772;50.940;6.782;2024-03-02T13:25:06;16.67;;;16.00;;
11431;SDS011;5772;50.940;6.782;2024-03-02T13:27:31;17.80;;;17.10;;
11431;SDS011;5772;50.940;6.782;2024-03-02T13:29:57;18.67;;;17.97;;
11431;SDS011;5772;50.940;6.782;2024-03-02T13:32:22;18.77;;;18.03;;
11431;SDS011;5772;50.940;6.782;2024-03-02T13:34:48;19.77;;;18.90;;
11431;SDS011;5772;50.940;6.782;2024-03-02T13:37:13;18.57;;;17.80;;
11431;SDS011;5772;50.940;6.782;2024-03-02T13:39:40;19.33;;;18.53;;
11431;SDS011;5772;50.940;6.782;2024-03-02T13:42:06;19.00;;;18.20;;
11431;SDS011;5772;50.940;6.782;2024-03-02T13:44:32;19.60;;;18.60;;
11431;SDS011;5772;50.940;6.782;2024-03-02T13:46:58;20.10;;;19.07;;
11431;SDS011;5772;50.940;6.782;2024-03-02T13:49:24;20.50;;;19.60;;
11431;SDS011;5772;50.940;6.782;2024-03-02T13:51:50;20.00;;;19.10;;
11431;SDS011;5772;50.940;6.782;2024-03-02T13:54:15;19.83;;;19.00;;
11431;SDS011;5772;50.940;6.782;2024-03-02T13:56:42;19.37;;;18.57;;
11431;SDS011;5772;50.940;6.782;2024-03-02T13:59:07;19.20;;;18.40;;
11431;SDS011;5772;50.940;6.782;2024-03-02T14:01:33;19.73;;;18.93;;
11431;SDS011;5772;50.940;6.782;2024-03-02T14:03:58;18.87;;;18.17;;
11431;SDS011;5772;50.940;6.782;2024-03-02T14:06:24;18.70;;;17.90;;
11431;SDS011;5772;50.940;6.782;2024-03-02T14:08:49;20.13;;;19.10;;
11431;SDS011;5772;50.940;6.782;2024-03-02T14:11:14;18.80;;;18.07;;
11431;SDS011;5772;50.940;6.782;2024-03-02T14:13:41;19.80;;;19.00;;
11431;SDS011;5772;50.940;6.782;2024-03-02T14:16:07;19.27;;;18.47;;
11431;SDS011;5772;50.940;6.782;2024-03-02T14:18:32;19.13;;;18.33;;
11431;SDS011;5772;50.940;6.782;2024-03-02T14:20:57;20.43;;;19.60;;
11431;SDS011;5772;50.940;6.782;2024-03-02T14:23:23;19.40;;;18.43;;
11431;SDS011;5772;50.940;6.782;2024-03-02T14:25:48;18.77;;;18.07;;
11431;SDS011;5772;50.940;6.782;2024-03-02T14:28:14;19.20;;;18.40;;
11431;SDS011;5772;50.940;6.782;2024-03-02T14:30:41;20.47;;;19.40;;
11431;SDS011;5772;50.940;6.782;2024-03-02T14:33:06;18.07;;;17.27;;
11431;SDS011;5772;50.940;6.782;2024-03-02T14:35:31;19.50;;;18.50;;
11431;SDS011;5772;50.940;6.782;2024-03-02T14:37:57;18.30;;;17.50;;
11431;SDS011;5772;50.940;6.782;2024-03-02T14:40:22;20.13;;;19.33;;
11431;SDS011;5772;50.940;6.782;2024-03-02T14:42:48;19.23;;;18.10;;
11431;SDS011;5772;50.940;6.782;2024-03-02T14:45:13;19.67;;;18.77;;